sensor_id;sensor_type;location;lat;lon;timestamp;P1;durP1;ratioP1;P2;durP2;ratioP2
20486;SDS011;10402;49.012;8.370;2023-06-10T00:01:00;804.70;;;762.83;;
20486;SDS011;10402;49.012;8.370;2023-06-10T00:03:26;811.70;;;769.37;;
20486;SDS011;10402;49.012;8.370;2023-06-10T00:05:51;794.17;;;752.87;;
20486;SDS011;10402;49.012;8.370;2023-06-10T00:08:17;815.17;;;772.37;;
20486;SDS011;10402;49.012;8.370;2023-06-10T00:10:44;799.70;;;757.47;;
20486;SDS011;10402;49.012;8.370;2023-06-10T00:13:10;801.80;;;760.33;;
20486;SDS011;10402;49.012;8.370;2023-06-10T00:15:36;805.13;;;763.70;;
20486;SDS011;10402;49.012;8.370;2023-06-10T00:18:02;791.60;;;750.40;;
20486;SDS011;10402;49.012;8.370;2023-06-10T00:20:28;798.37;;;756.87;;
20486;SDS011;10402;49.012;8.370;2023-06-10T00:22:55;821.20;;;777.70;;
20486;SDS011;10402;49.012;8.370;2023-06-10T00:25:22;813.97;;;771.70;;
20486;SDS011;10402;49.012;8.370;2023-06-10T00:27:47;820.63;;;777.67;;
20486;SDS011;10402;49.012;8.370;2023-06-10T00:30:13;797.43;;;756.10;;
20486;SDS011;10402;49.012;8.370;2023-06-10T00:32:39;805.90;;;764.20;;
20486;SDS011;10402;49.012;8.370;2023-06-10T00:35:04;795.10;;;754.23;;
20486;SDS011;10402;49.012;8.370;2023-06-10T00:37:31;810.90;;;767.97;;
20486;SDS011;10402;49.012;8.370;2023-06-10T00:39:57;812.33;;;769.83;;
20486;SDS011;10402;49.012;8.370;2023-06-10T00:42:23;800.63;;;758.63;;
20486;SDS011;10402;49.012;8.370;2023-06-10T00:44:50;806.23;;;764.00;;
20486;SDS011;10402;49.012;8.370;2023-06-10T00:47:15;795.13;;;753.80;;
20486;SDS011;10402;49.012;8.370;2023-06-10T00:49:41;814.83;;;772.83;;
20486;SDS011;10402;49.012;8.370;2023-06-10T00:52:07;811.63;;;770.13;;
20486;SDS011;10402;49.012;8.370;2023-06-10T00:54:33;811.97;;;770.20;;
20486;SDS011;10402;49.012;8.370;2023-06-10T00:57:01;798.63;;;758.37;;
20486;SDS011;10402;49.012;8.370;2023-06-10T00:59:28;803.97;;;762.53;;
20486;SDS011;10402;49.012;8.370;2023-06-10T01:01:54;817.83;;;775.13;;
20486;SDS011;10402;49.012;8.370;2023-06-10T01:04:21;817.20;;;774.30;;
20486;SDS011;10402;49.012;8.370;2023-06-10T01:12:33;796.33;;;755.47;;
20486;SDS011;10402;49.012;8.370;2023-06-10T01:15:04;789.90;;;749.10;;
20486;SDS011;10402;49.012;8.370;2023-06-10T01:17:30;774.77;;;734.43;;
20486;SDS011;10402;49.012;8.370;2023-06-10T01:19:57;777.10;;;736.73;;
20486;SDS011;10402;49.012;8.370;2023-06-10T01:22:26;777.40;;;737.37;;
20486;SDS011;10402;49.012;8.370;2023-06-10T01:24:53;774.27;;;733.87;;
20486;SDS011;10402;49.012;8.370;2023-06-10T01:27:23;787.07;;;745.63;;
20486;SDS011;10402;49.012;8.370;2023-06-10T01:30:03;789.27;;;748.30;;
20486;SDS011;10402;49.012;8.370;2023-06-10T01:32:34;773.97;;;733.83;;
20486;SDS011;10402;49.012;8.370;2023-06-10T01:35:05;782.73;;;741.57;;
20486;SDS011;10402;49.012;8.370;2023-06-10T01:37:33;759.97;;;720.43;;
20486;SDS011;10402;49.012;8.370;2023-06-10T01:39:59;784.03;;;743.60;;
20486;SDS011;10402;49.012;8.370;2023-06-10T01:42:28;783.30;;;743.10;;
20486;SDS011;10402;49.012;8.370;2023-06-10T01:44:54;777.87;;;738.00;;
20486;SDS011;10402;49.012;8.370;2023-06-10T01:47:20;775.90;;;736.40;;
20486;SDS011;10402;49.012;8.370;2023-06-10T01:49:45;788.77;;;748.37;;
20486;SDS011;10402;49.012;8.370;2023-06-10T01:52:11;785.97;;;746.13;;
20486;SDS011;10402;49.012;8.370;2023-06-10T01:54:36;787.10;;;747.37;;
20486;SDS011;10402;49.012;8.370;2023-06-10T01:57:02;783.73;;;744.37;;
20486;SDS011;10402;49.012;8.370;2023-06-10T01:59:28;776.30;;;737.03;;
20486;SDS011;10402;49.012;8.370;2023-06-10T02:01:53;779.70;;;740.40;;
20486;SDS011;10402;49.012;8.370;2023-06-10T02:04:19;776.80;;;737.20;;
20486;SDS011;10402;49.012;8.370;2023-06-10T02:06:44;765.97;;;727.67;;
20486;SDS011;10402;49.012;8.370;2023-06-10T02:09:10;772.97;;;734.30;;
20486;SDS011;10402;49.012;8.370;2023-06-10T02:11:36;770.87;;;731.90;;
20486;SDS011;10402;49.012;8.370;2023-06-10T02:14:01;785.37;;;744.73;;
20486;SDS011;10402;49.012;8.370;2023-06-10T02:16:27;782.47;;;741.63;;
20486;SDS011;10402;49.012;8.370;2023-06-10T02:18:52;785.60;;;743.83;;
20486;SDS011;10402;49.012;8.370;2023-06-10T02:21:18;757.27;;;717.90;;
20486;SDS011;10402;49.012;8.370;2023-06-10T02:23:43;774.27;;;732.93;;
20486;SDS011;10402;49.012;8.370;2023-06-10T02:26:09;773.13;;;732.60;;
20486;SDS011;10402;49.012;8.370;2023-06-10T02:28:35;730.17;;;692.70;;
20486;SDS011;10402;49.012;8.370;2023-06-10T02:31:00;764.70;;;725.37;;
20486;SDS011;10402;49.012;8.370;2023-06-10T02:33:26;753.07;;;714.17;;
20486;SDS011;10402;49.012;8.370;2023-06-10T02:35:52;748.70;;;710.27;;
20486;SDS011;10402;49.012;8.370;2023-06-10T02:38:17;716.80;;;680.70;;
20486;SDS011;10402;49.012;8.370;2023-06-10T02:40:43;706.03;;;670.93;;
20486;SDS011;10402;49.012;8.370;2023-06-10T02:43:08;692.80;;;658.30;;
20486;SDS011;10402;49.012;8.370;2023-06-10T02:45:34;669.83;;;637.03;;
20486;SDS011;10402;49.012;8.370;2023-06-10T02:48:00;652.77;;;620.47;;
20486;SDS011;10402;49.012;8.370;2023-06-10T02:50:25;644.73;;;612.87;;
20486;SDS011;10402;49.012;8.370;2023-06-10T02:52:51;665.23;;;632.47;;
20486;SDS011;10402;49.012;8.370;2023-06-10T02:55:16;656.33;;;623.77;;
20486;SDS011;10402;49.012;8.370;2023-06-10T02:57:42;640.97;;;609.33;;
20486;SDS011;10402;49.012;8.370;2023-06-10T03:00:08;653.50;;;621.70;;
20486;SDS011;10402;49.012;8.370;2023-06-10T03:02:39;654.80;;;622.77;;
20486;SDS011;10402;49.012;8.370;2023-06-10T03:05:05;668.20;;;635.47;;
20486;SDS011;10402;49.012;8.370;2023-06-10T03:07:34;672.23;;;639.60;;
20486;SDS011;10402;49.012;8.370;2023-06-10T03:10:00;670.23;;;638.17;;
20486;SDS011;10402;49.012;8.370;2023-06-10T03:12:25;688.63;;;655.20;;
20486;SDS011;10402;49.012;8.370;2023-06-10T03:14:51;688.20;;;655.17;;
20486;SDS011;10402;49.012;8.370;2023-06-10T03:17:16;689.20;;;655.87;;
20486;SDS011;10402;49.012;8.370;2023-06-10T03:19:42;695.63;;;661.57;;
20486;SDS011;10402;49.012;8.370;2023-06-10T03:22:08;695.87;;;661.23;;
20486;SDS011;10402;49.012;8.370;2023-06-10T03:24:43;696.77;;;661.90;;
20486;SDS011;10402;49.012;8.370;2023-06-10T03:27:11;696.53;;;661.50;;
20486;SDS011;10402;49.012;8.370;2023-06-10T03:29:38;681.37;;;647.53;;
20486;SDS011;10402;49.012;8.370;2023-06-10T03:32:03;693.40;;;659.00;;
20486;SDS011;10402;49.012;8.370;2023-06-10T03:34:30;684.10;;;650.20;;
20486;SDS011;10402;49.012;8.370;2023-06-10T03:36:56;696.27;;;661.47;;
20486;SDS011;10402;49.012;8.370;2023-06-10T03:39:22;677.77;;;644.93;;
20486;SDS011;10402;49.012;8.370;2023-06-10T03:41:48;694.87;;;660.77;;
20486;SDS011;10402;49.012;8.370;2023-06-10T03:44:16;680.10;;;646.93;;
20486;SDS011;10402;49.012;8.370;2023-06-10T03:46:42;680.53;;;647.80;;
20486;SDS011;10402;49.012;8.370;2023-06-10T03:49:07;686.00;;;652.07;;
20486;SDS011;10402;49.012;8.370;2023-06-10T03:51:34;666.83;;;634.20;;
20486;SDS011;10402;49.012;8.370;2023-06-10T03:54:00;670.40;;;637.50;;
20486;SDS011;10402;49.012;8.370;2023-06-10T03:56:26;658.73;;;626.67;;
20486;SDS011;10402;49.012;8.370;2023-06-10T03:58:51;674.00;;;641.27;;
20486;SDS011;10402;49.012;8.370;2023-06-10T04:01:17;648.50;;;616.90;;
20486;SDS011;10402;49.012;8.370;2023-06-10T04:03:46;652.00;;;620.67;;
20486;SDS011;10402;49.012;8.370;2023-06-10T04:06:16;637.00;;;607.00;;
20486;SDS011;10402;49.012;8.370;2023-06-10T04:08:42;641.30;;;611.17;;
20486;SDS011;10402;49.012;8.370;2023-06-10T04:11:08;632.93;;;603.67;;
20486;SDS011;10402;49.012;8.370;2023-06-10T04:13:33;652.27;;;621.63;;
20486;SDS011;10402;49.012;8.370;2023-06-10T04:15:59;651.73;;;621.63;;
20486;SDS011;10402;49.012;8.370;2023-06-10T04:18:25;641.93;;;612.20;;
20486;SDS011;10402;49.012;8.370;2023-06-10T04:20:51;630.07;;;600.47;;
20486;SDS011;10402;49.012;8.370;2023-06-10T04:23:16;634.47;;;604.50;;
20486;SDS011;10402;49.012;8.370;2023-06-10T04:25:42;623.03;;;593.57;;
20486;SDS011;10402;49.012;8.370;2023-06-10T04:28:07;629.53;;;600.00;;
20486;SDS011;10402;49.012;8.370;2023-06-10T04:30:33;625.60;;;596.03;;
20486;SDS011;10402;49.012;8.370;2023-06-10T04:32:58;615.60;;;586.50;;
20486;SDS011;10402;49.012;8.370;2023-06-10T04:35:24;625.80;;;596.33;;
20486;SDS011;10402;49.012;8.370;2023-06-10T04:37:52;638.93;;;608.70;;
20486;SDS011;10402;49.012;8.370;2023-06-10T04:40:18;637.23;;;606.80;;
20486;SDS011;10402;49.012;8.370;2023-06-10T04:42:44;647.43;;;616.40;;
20486;SDS011;10402;49.012;8.370;2023-06-10T04:45:10;638.77;;;608.77;;
20486;SDS011;10402;49.012;8.370;2023-06-10T04:47:35;631.00;;;601.57;;
20486;SDS011;10402;49.012;8.370;2023-06-10T04:50:01;655.90;;;625.07;;
20486;SDS011;10402;49.012;8.370;2023-06-10T04:52:28;645.03;;;614.87;;
20486;SDS011;10402;49.012;8.370;2023-06-10T04:54:54;633.70;;;604.13;;
20486;SDS011;10402;49.012;8.370;2023-06-10T04:57:20;640.13;;;610.23;;
20486;SDS011;10402;49.012;8.370;2023-06-10T04:59:46;645.23;;;615.37;;
20486;SDS011;10402;49.012;8.370;2023-06-10T05:02:12;642.10;;;612.20;;
20486;SDS011;10402;49.012;8.370;2023-06-10T05:04:37;641.80;;;611.57;;
20486;SDS011;10402;49.012;8.370;2023-06-10T05:07:04;657.37;;;626.30;;
20486;SDS011;10402;49.012;8.370;2023-06-10T05:09:30;654.97;;;624.13;;
20486;SDS011;10402;49.012;8.370;2023-06-10T05:11:55;658.03;;;627.03;;
20486;SDS011;10402;49.012;8.370;2023-06-10T05:14:21;674.33;;;641.70;;
20486;SDS011;10402;49.012;8.370;2023-06-10T05:16:47;651.70;;;620.63;;
20486;SDS011;10402;49.012;8.370;2023-06-10T05:19:13;674.20;;;641.73;;
20486;SDS011;10402;49.012;8.370;2023-06-10T05:21:38;664.50;;;633.37;;
20486;SDS011;10402;49.012;8.370;2023-06-10T05:24:04;659.67;;;628.40;;
20486;SDS011;10402;49.012;8.370;2023-06-10T05:26:30;671.60;;;639.33;;
20486;SDS011;10402;49.012;8.370;2023-06-10T05:28:57;676.50;;;643.63;;
20486;SDS011;10402;49.012;8.370;2023-06-10T05:31:23;671.40;;;639.17;;
20486;SDS011;10402;49.012;8.370;2023-06-10T05:33:49;663.50;;;631.57;;
20486;SDS011;10402;49.012;8.370;2023-06-10T05:36:15;674.83;;;642.43;;
20486;SDS011;10402;49.012;8.370;2023-06-10T05:38:40;685.80;;;652.97;;
20486;SDS011;10402;49.012;8.370;2023-06-10T05:41:06;690.10;;;656.80;;
20486;SDS011;10402;49.012;8.370;2023-06-10T05:43:31;681.20;;;648.23;;
20486;SDS011;10402;49.012;8.370;2023-06-10T05:45:57;667.90;;;635.90;;
20486;SDS011;10402;49.012;8.370;2023-06-10T05:48:22;662.90;;;631.40;;
20486;SDS011;10402;49.012;8.370;2023-06-10T05:50:48;689.93;;;656.63;;
20486;SDS011;10402;49.012;8.370;2023-06-10T05:53:16;679.13;;;646.70;;
20486;SDS011;10402;49.012;8.370;2023-06-10T05:55:42;694.00;;;659.53;;
20486;SDS011;10402;49.012;8.370;2023-06-10T05:58:09;706.73;;;671.67;;
20486;SDS011;10402;49.012;8.370;2023-06-10T06:00:35;731.93;;;694.30;;
20486;SDS011;10402;49.012;8.370;2023-06-10T06:03:00;716.67;;;680.30;;
20486;SDS011;10402;49.012;8.370;2023-06-10T06:05:26;725.83;;;688.57;;
20486;SDS011;10402;49.012;8.370;2023-06-10T06:07:52;741.23;;;702.67;;
20486;SDS011;10402;49.012;8.370;2023-06-10T06:10:18;755.40;;;715.20;;
20486;SDS011;10402;49.012;8.370;2023-06-10T06:12:43;744.80;;;705.23;;
20486;SDS011;10402;49.012;8.370;2023-06-10T06:15:10;752.77;;;713.10;;
20486;SDS011;10402;49.012;8.370;2023-06-10T06:17:35;745.33;;;705.97;;
20486;SDS011;10402;49.012;8.370;2023-06-10T06:20:02;782.97;;;740.93;;
20486;SDS011;10402;49.012;8.370;2023-06-10T06:22:28;775.97;;;734.47;;
20486;SDS011;10402;49.012;8.370;2023-06-10T06:24:53;784.07;;;742.27;;
20486;SDS011;10402;49.012;8.370;2023-06-10T06:27:19;769.83;;;729.00;;
20486;SDS011;10402;49.012;8.370;2023-06-10T06:29:46;776.27;;;735.13;;
20486;SDS011;10402;49.012;8.370;2023-06-10T06:32:11;770.03;;;729.20;;
20486;SDS011;10402;49.012;8.370;2023-06-10T06:34:37;794.90;;;752.80;;
20486;SDS011;10402;49.012;8.370;2023-06-10T06:37:02;782.73;;;741.00;;
20486;SDS011;10402;49.012;8.370;2023-06-10T06:39:28;788.27;;;745.87;;
20486;SDS011;10402;49.012;8.370;2023-06-10T06:41:54;791.80;;;749.33;;
20486;SDS011;10402;49.012;8.370;2023-06-10T06:44:19;794.60;;;751.87;;
20486;SDS011;10402;49.012;8.370;2023-06-10T06:46:45;806.53;;;763.00;;
20486;SDS011;10402;49.012;8.370;2023-06-10T06:49:11;784.10;;;741.67;;
20486;SDS011;10402;49.012;8.370;2023-06-10T06:51:36;815.20;;;770.83;;
20486;SDS011;10402;49.012;8.370;2023-06-10T06:54:02;806.03;;;762.40;;
20486;SDS011;10402;49.012;8.370;2023-06-10T06:56:27;820.50;;;775.63;;
20486;SDS011;10402;49.012;8.370;2023-06-10T06:58:53;814.30;;;770.07;;
20486;SDS011;10402;49.012;8.370;2023-06-10T07:01:19;833.97;;;789.17;;
20486;SDS011;10402;49.012;8.370;2023-06-10T07:03:44;845.27;;;799.13;;
20486;SDS011;10402;49.012;8.370;2023-06-10T07:06:10;861.20;;;813.83;;
20486;SDS011;10402;49.012;8.370;2023-06-10T07:08:35;854.30;;;807.10;;
20486;SDS011;10402;49.012;8.370;2023-06-10T07:11:01;869.93;;;821.37;;
20486;SDS011;10402;49.012;8.370;2023-06-10T07:13:27;868.27;;;820.73;;
20486;SDS011;10402;49.012;8.370;2023-06-10T07:15:52;883.30;;;834.43;;
20486;SDS011;10402;49.012;8.370;2023-06-10T07:18:18;880.53;;;832.17;;
20486;SDS011;10402;49.012;8.370;2023-06-10T07:20:43;875.70;;;826.17;;
20486;SDS011;10402;49.012;8.370;2023-06-10T07:23:09;877.50;;;828.77;;
20486;SDS011;10402;49.012;8.370;2023-06-10T07:25:34;851.30;;;804.17;;
20486;SDS011;10402;49.012;8.370;2023-06-10T07:28:00;862.53;;;813.90;;
20486;SDS011;10402;49.012;8.370;2023-06-10T07:30:26;860.67;;;812.47;;
20486;SDS011;10402;49.012;8.370;2023-06-10T07:32:51;837.47;;;790.80;;
20486;SDS011;10402;49.012;8.370;2023-06-10T07:35:17;839.90;;;792.87;;
20486;SDS011;10402;49.012;8.370;2023-06-10T07:37:42;846.17;;;798.70;;
20486;SDS011;10402;49.012;8.370;2023-06-10T07:40:08;850.10;;;802.73;;
20486;SDS011;10402;49.012;8.370;2023-06-10T07:42:34;846.37;;;799.03;;
20486;SDS011;10402;49.012;8.370;2023-06-10T07:45:01;854.80;;;807.20;;
20486;SDS011;10402;49.012;8.370;2023-06-10T07:47:28;841.83;;;795.03;;
20486;SDS011;10402;49.012;8.370;2023-06-10T07:49:54;855.33;;;807.57;;
20486;SDS011;10402;49.012;8.370;2023-06-10T07:52:19;852.07;;;804.27;;
20486;SDS011;10402;49.012;8.370;2023-06-10T07:54:45;855.50;;;807.33;;
20486;SDS011;10402;49.012;8.370;2023-06-10T07:57:10;849.17;;;802.20;;
20486;SDS011;10402;49.012;8.370;2023-06-10T07:59:36;844.73;;;797.33;;
20486;SDS011;10402;49.012;8.370;2023-06-10T08:02:02;842.73;;;795.60;;
20486;SDS011;10402;49.012;8.370;2023-06-10T08:04:28;844.87;;;797.27;;
20486;SDS011;10402;49.012;8.370;2023-06-10T08:06:55;843.27;;;796.13;;
20486;SDS011;10402;49.012;8.370;2023-06-10T08:09:21;851.73;;;803.07;;
20486;SDS011;10402;49.012;8.370;2023-06-10T08:11:48;834.47;;;786.47;;
20486;SDS011;10402;49.012;8.370;2023-06-10T08:14:14;825.37;;;777.77;;
20486;SDS011;10402;49.012;8.370;2023-06-10T08:16:39;814.07;;;767.30;;
20486;SDS011;10402;49.012;8.370;2023-06-10T08:19:05;821.87;;;774.43;;
20486;SDS011;10402;49.012;8.370;2023-06-10T08:21:30;834.27;;;786.57;;
20486;SDS011;10402;49.012;8.370;2023-06-10T08:23:56;825.70;;;778.57;;
20486;SDS011;10402;49.012;8.370;2023-06-10T08:26:22;833.40;;;785.53;;
20486;SDS011;10402;49.012;8.370;2023-06-10T08:28:47;850.63;;;802.30;;
20486;SDS011;10402;49.012;8.370;2023-06-10T08:31:13;853.30;;;804.73;;
20486;SDS011;10402;49.012;8.370;2023-06-10T08:33:38;860.53;;;811.27;;
20486;SDS011;10402;49.012;8.370;2023-06-10T08:36:04;857.97;;;809.60;;
20486;SDS011;10402;49.012;8.370;2023-06-10T08:38:30;862.97;;;813.57;;
20486;SDS011;10402;49.012;8.370;2023-06-10T08:40:56;853.47;;;805.03;;
20486;SDS011;10402;49.012;8.370;2023-06-10T08:43:29;855.77;;;807.17;;
20486;SDS011;10402;49.012;8.370;2023-06-10T08:46:00;842.00;;;795.00;;
20486;SDS011;10402;49.012;8.370;2023-06-10T08:48:28;850.10;;;802.83;;
20486;SDS011;10402;49.012;8.370;2023-06-10T08:50:56;822.07;;;776.67;;
20486;SDS011;10402;49.012;8.370;2023-06-10T08:53:22;836.00;;;788.93;;
20486;SDS011;10402;49.012;8.370;2023-06-10T08:55:50;857.40;;;809.50;;
20486;SDS011;10402;49.012;8.370;2023-06-10T08:58:19;823.53;;;778.03;;
20486;SDS011;10402;49.012;8.370;2023-06-10T09:00:45;843.13;;;796.33;;
20486;SDS011;10402;49.012;8.370;2023-06-10T09:03:10;844.43;;;797.73;;
20486;SDS011;10402;49.012;8.370;2023-06-10T09:05:37;826.03;;;781.10;;
20486;SDS011;10402;49.012;8.370;2023-06-10T09:08:04;848.60;;;801.30;;
20486;SDS011;10402;49.012;8.370;2023-06-10T09:10:32;828.43;;;782.80;;
20486;SDS011;10402;49.012;8.370;2023-06-10T09:12:58;824.00;;;779.03;;
20486;SDS011;10402;49.012;8.370;2023-06-10T09:15:23;844.77;;;797.80;;
20486;SDS011;10402;49.012;8.370;2023-06-10T09:17:49;855.17;;;807.07;;
20486;SDS011;10402;49.012;8.370;2023-06-10T09:20:16;833.97;;;787.70;;
20486;SDS011;10402;49.012;8.370;2023-06-10T09:22:42;854.20;;;806.27;;
20486;SDS011;10402;49.012;8.370;2023-06-10T09:25:09;853.83;;;805.97;;
20486;SDS011;10402;49.012;8.370;2023-06-10T09:27:51;849.63;;;802.07;;
20486;SDS011;10402;49.012;8.370;2023-06-10T09:30:28;855.17;;;807.23;;
20486;SDS011;10402;49.012;8.370;2023-06-10T09:32:59;850.53;;;802.97;;
20486;SDS011;10402;49.012;8.370;2023-06-10T09:35:26;861.27;;;812.60;;
20486;SDS011;10402;49.012;8.370;2023-06-10T09:37:53;864.33;;;815.13;;
20486;SDS011;10402;49.012;8.370;2023-06-10T09:40:22;872.13;;;822.33;;
20486;SDS011;10402;49.012;8.370;2023-06-10T09:42:55;884.33;;;833.70;;
20486;SDS011;10402;49.012;8.370;2023-06-10T09:45:31;869.40;;;819.83;;
20486;SDS011;10402;49.012;8.370;2023-06-10T09:47:57;879.43;;;829.43;;
20486;SDS011;10402;49.012;8.370;2023-06-10T09:50:23;907.27;;;854.80;;
20486;SDS011;10402;49.012;8.370;2023-06-10T09:52:50;894.93;;;843.03;;
20486;SDS011;10402;49.012;8.370;2023-06-10T09:55:16;904.37;;;852.00;;
20486;SDS011;10402;49.012;8.370;2023-06-10T09:57:42;906.97;;;854.23;;
20486;SDS011;10402;49.012;8.370;2023-06-10T10:00:12;891.43;;;840.13;;
20486;SDS011;10402;49.012;8.370;2023-06-10T10:02:48;910.77;;;857.80;;
20486;SDS011;10402;49.012;8.370;2023-06-10T10:05:16;909.50;;;857.13;;
20486;SDS011;10402;49.012;8.370;2023-06-10T10:07:43;904.73;;;852.47;;
20486;SDS011;10402;49.012;8.370;2023-06-10T10:10:09;902.80;;;850.60;;
20486;SDS011;10402;49.012;8.370;2023-06-10T10:12:39;909.07;;;856.77;;
20486;SDS011;10402;49.012;8.370;2023-06-10T10:15:09;907.87;;;855.50;;
20486;SDS011;10402;49.012;8.370;2023-06-10T10:17:40;903.67;;;851.80;;
20486;SDS011;10402;49.012;8.370;2023-06-10T10:20:09;906.43;;;854.10;;
20486;SDS011;10402;49.012;8.370;2023-06-10T10:22:39;908.27;;;856.17;;
20486;SDS011;10402;49.012;8.370;2023-06-10T10:25:11;923.17;;;870.00;;
20486;SDS011;10402;49.012;8.370;2023-06-10T10:27:44;923.47;;;870.53;;
20486;SDS011;10402;49.012;8.370;2023-06-10T10:30:13;899.60;;;848.07;;
20486;SDS011;10402;49.012;8.370;2023-06-10T10:32:47;907.60;;;855.30;;
20486;SDS011;10402;49.012;8.370;2023-06-10T10:35:36;914.50;;;861.83;;
20486;SDS011;10402;49.012;8.370;2023-06-10T10:38:03;919.90;;;866.90;;
20486;SDS011;10402;49.012;8.370;2023-06-10T10:40:29;923.40;;;870.17;;
20486;SDS011;10402;49.012;8.370;2023-06-10T10:42:57;910.73;;;858.37;;
20486;SDS011;10402;49.012;8.370;2023-06-10T10:45:24;924.03;;;871.07;;
20486;SDS011;10402;49.012;8.370;2023-06-10T10:47:53;926.13;;;872.30;;
20486;SDS011;10402;49.012;8.370;2023-06-10T10:50:21;908.10;;;855.77;;
20486;SDS011;10402;49.012;8.370;2023-06-10T10:53:08;925.60;;;872.23;;
20486;SDS011;10402;49.012;8.370;2023-06-10T10:55:33;914.23;;;861.70;;
20486;SDS011;10402;49.012;8.370;2023-06-10T10:58:05;939.37;;;885.00;;
20486;SDS011;10402;49.012;8.370;2023-06-10T11:00:35;935.07;;;880.43;;
20486;SDS011;10402;49.012;8.370;2023-06-10T11:05:35;934.10;;;879.40;;
20486;SDS011;10402;49.012;8.370;2023-06-10T11:08:09;925.40;;;871.50;;
20486;SDS011;10402;49.012;8.370;2023-06-10T11:10:36;940.90;;;885.53;;
20486;SDS011;10402;49.012;8.370;2023-06-10T11:13:09;934.57;;;879.70;;
20486;SDS011;10402;49.012;8.370;2023-06-10T11:15:40;945.53;;;889.60;;
20486;SDS011;10402;49.012;8.370;2023-06-10T11:26:14;931.60;;;877.57;;
20486;SDS011;10402;49.012;8.370;2023-06-10T11:31:19;941.07;;;886.20;;
20486;SDS011;10402;49.012;8.370;2023-06-10T11:33:55;925.17;;;871.23;;
20486;SDS011;10402;49.012;8.370;2023-06-10T11:36:26;930.97;;;876.87;;
20486;SDS011;10402;49.012;8.370;2023-06-10T11:39:03;943.00;;;888.00;;
20486;SDS011;10402;49.012;8.370;2023-06-10T11:41:30;923.43;;;870.23;;
20486;SDS011;10402;49.012;8.370;2023-06-10T11:43:59;936.00;;;880.70;;
20486;SDS011;10402;49.012;8.370;2023-06-10T11:46:33;929.47;;;874.57;;
20486;SDS011;10402;49.012;8.370;2023-06-10T11:48:59;936.13;;;881.30;;
20486;SDS011;10402;49.012;8.370;2023-06-10T11:51:26;961.20;;;904.77;;
20486;SDS011;10402;49.012;8.370;2023-06-10T11:53:53;935.13;;;879.87;;
20486;SDS011;10402;49.012;8.370;2023-06-10T11:56:23;952.97;;;896.47;;
20486;SDS011;10402;49.012;8.370;2023-06-10T11:58:53;944.40;;;888.93;;
20486;SDS011;10402;49.012;8.370;2023-06-10T12:01:23;944.20;;;887.90;;
20486;SDS011;10402;49.012;8.370;2023-06-10T12:04:00;947.43;;;891.23;;
20486;SDS011;10402;49.012;8.370;2023-06-10T12:06:28;949.20;;;893.20;;
20486;SDS011;10402;49.012;8.370;2023-06-10T12:09:03;937.23;;;881.47;;
20486;SDS011;10402;49.012;8.370;2023-06-10T12:11:29;938.77;;;883.00;;
20486;SDS011;10402;49.012;8.370;2023-06-10T12:13:54;936.33;;;880.27;;
20486;SDS011;10402;49.012;8.370;2023-06-10T12:16:20;955.33;;;897.87;;
20486;SDS011;10402;49.012;8.370;2023-06-10T12:18:45;944.83;;;888.30;;
20486;SDS011;10402;49.012;8.370;2023-06-10T12:21:18;944.07;;;887.00;;
20486;SDS011;10402;49.012;8.370;2023-06-10T12:24:04;950.67;;;893.33;;
20486;SDS011;10402;49.012;8.370;2023-06-10T12:26:36;946.43;;;889.77;;
20486;SDS011;10402;49.012;8.370;2023-06-10T12:31:56;930.37;;;875.00;;
20486;SDS011;10402;49.012;8.370;2023-06-10T12:34:30;954.80;;;897.20;;
20486;SDS011;10402;49.012;8.370;2023-06-10T12:36:57;938.80;;;882.47;;
20486;SDS011;10402;49.012;8.370;2023-06-10T12:39:22;951.93;;;895.10;;
20486;SDS011;10402;49.012;8.370;2023-06-10T12:41:48;945.53;;;889.23;;
20486;SDS011;10402;49.012;8.370;2023-06-10T12:44:14;934.47;;;878.40;;
20486;SDS011;10402;49.012;8.370;2023-06-10T12:46:40;935.03;;;879.43;;
20486;SDS011;10402;49.012;8.370;2023-06-10T12:49:05;929.97;;;874.73;;
20486;SDS011;10402;49.012;8.370;2023-06-10T12:51:31;940.27;;;884.43;;
20486;SDS011;10402;49.012;8.370;2023-06-10T12:53:56;941.53;;;884.97;;
20486;SDS011;10402;49.012;8.370;2023-06-10T12:56:23;939.63;;;884.00;;
20486;SDS011;10402;49.012;8.370;2023-06-10T12:58:49;939.93;;;883.73;;
20486;SDS011;10402;49.012;8.370;2023-06-10T13:01:14;947.73;;;890.90;;
20486;SDS011;10402;49.012;8.370;2023-06-10T13:03:40;938.93;;;883.13;;
20486;SDS011;10402;49.012;8.370;2023-06-10T13:06:05;945.40;;;889.23;;
20486;SDS011;10402;49.012;8.370;2023-06-10T13:08:31;949.07;;;892.10;;
20486;SDS011;10402;49.012;8.370;2023-06-10T13:10:57;943.40;;;886.40;;
20486;SDS011;10402;49.012;8.370;2023-06-10T13:13:23;943.43;;;886.70;;
20486;SDS011;10402;49.012;8.370;2023-06-10T13:15:49;953.37;;;896.20;;
20486;SDS011;10402;49.012;8.370;2023-06-10T13:18:15;952.73;;;895.57;;
20486;SDS011;10402;49.012;8.370;2023-06-10T13:20:42;962.33;;;905.00;;
20486;SDS011;10402;49.012;8.370;2023-06-10T13:23:08;955.40;;;898.47;;
20486;SDS011;10402;49.012;8.370;2023-06-10T13:25:34;968.97;;;910.97;;
20486;SDS011;10402;49.012;8.370;2023-06-10T13:27:59;957.50;;;900.57;;
20486;SDS011;10402;49.012;8.370;2023-06-10T13:30:26;960.13;;;902.63;;
20486;SDS011;10402;49.012;8.370;2023-06-10T13:32:51;962.70;;;905.20;;
20486;SDS011;10402;49.012;8.370;2023-06-10T13:35:17;975.00;;;916.83;;
20486;SDS011;10402;49.012;8.370;2023-06-10T13:37:42;952.90;;;895.80;;
20486;SDS011;10402;49.012;8.370;2023-06-10T13:40:08;959.87;;;902.43;;
20486;SDS011;10402;49.012;8.370;2023-06-10T13:42:34;959.77;;;902.10;;
20486;SDS011;10402;49.012;8.370;2023-06-10T13:45:01;964.23;;;906.00;;
20486;SDS011;10402;49.012;8.370;2023-06-10T13:47:27;958.87;;;901.43;;
20486;SDS011;10402;49.012;8.370;2023-06-10T13:49:53;962.93;;;905.23;;
20486;SDS011;10402;49.012;8.370;2023-06-10T13:52:18;960.37;;;902.77;;
20486;SDS011;10402;49.012;8.370;2023-06-10T13:54:44;960.63;;;902.90;;
20486;SDS011;10402;49.012;8.370;2023-06-10T13:57:10;956.87;;;899.83;;
20486;SDS011;10402;49.012;8.370;2023-06-10T13:59:35;962.77;;;904.97;;
20486;SDS011;10402;49.012;8.370;2023-06-10T14:02:01;960.50;;;903.13;;
20486;SDS011;10402;49.012;8.370;2023-06-10T14:04:27;979.67;;;921.27;;
20486;SDS011;10402;49.012;8.370;2023-06-10T14:06:52;976.83;;;918.10;;
20486;SDS011;10402;49.012;8.370;2023-06-10T14:09:18;983.37;;;924.10;;
20486;SDS011;10402;49.012;8.370;2023-06-10T14:11:44;954.70;;;897.53;;
20486;SDS011;10402;49.012;8.370;2023-06-10T14:14:09;975.17;;;916.37;;
20486;SDS011;10402;49.012;8.370;2023-06-10T14:16:35;974.80;;;916.37;;